Time;durP1;ratioP1;P1;durP2;ratioP2;P2;SDS_P1;SDS_P2;PMS_P1;PMS_P2;Temp;Humidity;BMP_temperature;BMP_pressure;BME280_temperature;BME280_humidity;BME280_pressure;Samples;Min_cycle;Max_cycle;Signal;HPM_P1;HPM_P2
2023/01/07 00:01:07;;;;;;;13.60;11.87;;;;;;;;;;4907523;28;20288;-87
2023/01/07 00:03:33;;;;;;;13.40;12.03;;;;;;;;;;4927688;28;20218;-87
2023/01/07 00:06:02;;;;;;;12.63;10.23;;;;;;;;;;4955225;28;20227;-86
2023/01/07 00:08:31;;;;;;;12.77;10.70;;;;;;;;;;4940400;28;20280;-86
2023/01/07 00:11:05;;;;;;;13.90;10.87;;;;;;;;;;4943423;28;20238;-86
2023/01/07 00:13:31;;;;;;;17.97;10.73;;;;;;;;;;4916066;28;20263;-86
2023/01/07 00:15:58;;;;;;;20.60;10.50;;;;;;;;;;4955179;29;20297;-86
2023/01/07 00:18:26;;;;;;;12.53;11.13;;;;;;;;;;4896579;29;20227;-85
2023/01/07 00:20:55;;;;;;;13.13;11.67;;;;;;;;;;4924060;28;20377;-87
2023/01/07 00:23:23;;;;;;;10.77;9.67;;;;;;;;;;4933244;29;20227;-87
2023/01/07 00:25:52;;;;;;;11.80;9.50;;;;;;;;;;4908616;28;20234;-86
2023/01/07 00:28:20;;;;;;;11.37;10.17;;;;;;;;;;4923082;29;20316;-85
2023/01/07 00:30:48;;;;;;;12.40;11.10;;;;;;;;;;4906319;29;20730;-87
2023/01/07 00:33:17;;;;;;;11.77;10.53;;;;;;;;;;4914160;28;20237;-87
2023/01/07 00:35:44;;;;;;;12.37;11.17;;;;;;;;;;4908666;29;20226;-87
2023/01/07 00:38:09;;;;;;;11.40;10.30;;;;;;;;;;4908056;29;20676;-87
2023/01/07 00:40:35;;;;;;;10.73;9.60;;;;;;;;;;4901194;28;20218;-87
2023/01/07 00:43:01;;;;;;;13.67;10.90;;;;;;;;;;4911486;28;20218;-88
2023/01/07 00:45:31;;;;;;;11.17;10.07;;;;;;;;;;4921519;29;20615;-89
2023/01/07 00:48:00;;;;;;;11.03;9.93;;;;;;;;;;4923860;28;20234;-87
2023/01/07 00:50:29;;;;;;;11.50;9.67;;;;;;;;;;4909388;28;20723;-88
2023/01/07 00:52:54;;;;;;;13.00;11.33;;;;;;;;;;4919633;28;20330;-88
2023/01/07 00:55:20;;;;;;;14.50;12.77;;;;;;;;;;4914703;29;20286;-88
2023/01/07 00:57:48;;;;;;;15.60;13.37;;;;;;;;;;4918171;28;20242;-89
2023/01/07 01:00:15;;;;;;;15.77;12.77;;;;;;;;;;4920565;28;20301;-88
2023/01/07 01:02:45;;;;;;;15.83;12.17;;;;;;;;;;4922120;28;20222;-89
2023/01/07 01:05:11;;;;;;;14.10;11.70;;;;;;;;;;4936442;28;20226;-89
2023/01/07 01:07:39;;;;;;;11.47;10.40;;;;;;;;;;4925244;28;20241;-88
2023/01/07 01:10:06;;;;;;;16.87;14.03;;;;;;;;;;4955997;28;20229;-88
2023/01/07 01:12:34;;;;;;;15.53;12.60;;;;;;;;;;4920820;29;20641;-88
2023/01/07 01:15:00;;;;;;;17.43;13.53;;;;;;;;;;4915306;28;20246;-88
2023/01/07 01:17:26;;;;;;;17.10;13.90;;;;;;;;;;4934502;28;20233;-89
2023/01/07 01:19:51;;;;;;;18.33;15.77;;;;;;;;;;4924892;28;20782;-88
2023/01/07 01:22:17;;;;;;;17.73;14.60;;;;;;;;;;4921598;29;20707;-87
2023/01/07 01:24:43;;;;;;;16.70;12.87;;;;;;;;;;4918689;28;20237;-88
2023/01/07 01:27:11;;;;;;;14.80;13.20;;;;;;;;;;4905710;29;20256;-88
2023/01/07 01:29:39;;;;;;;16.40;14.53;;;;;;;;;;4906770;28;20253;-89
2023/01/07 01:32:05;;;;;;;16.37;14.57;;;;;;;;;;4918185;29;20230;-88
2023/01/07 01:34:33;;;;;;;16.67;13.77;;;;;;;;;;4922333;29;20310;-88
2023/01/07 01:37:03;;;;;;;15.57;12.77;;;;;;;;;;4923666;28;20222;-88
2023/01/07 01:39:29;;;;;;;19.43;13.93;;;;;;;;;;4910143;28;20219;-88
2023/01/07 01:41:55;;;;;;;16.87;14.27;;;;;;;;;;4901337;28;20225;-89
2023/01/07 01:44:47;;;;;;;14.93;13.33;;;;;;;;;;4921555;29;20238;-87
2023/01/07 01:47:22;;;;;;;14.23;12.73;;;;;;;;;;4923661;29;20294;-89
2023/01/07 01:50:22;;;;;;;15.43;13.83;;;;;;;;;;4950714;28;20252;-88
2023/01/07 01:52:53;;;;;;;14.73;13.20;;;;;;;;;;4961957;28;20226;-89
2023/01/07 01:55:21;;;;;;;20.00;16.53;;;;;;;;;;4934992;28;20296;-89
2023/01/07 01:57:51;;;;;;;18.77;16.73;;;;;;;;;;4939889;28;20232;-88
2023/01/07 02:00:17;;;;;;;21.17;18.87;;;;;;;;;;4906915;28;20226;-88
2023/01/07 02:02:53;;;;;;;24.57;20.83;;;;;;;;;;4929859;28;20246;-89
2023/01/07 02:05:21;;;;;;;28.17;21.50;;;;;;;;;;4927184;29;20242;-89
2023/01/07 02:07:49;;;;;;;25.63;22.67;;;;;;;;;;4915144;28;20222;-89
2023/01/07 02:10:20;;;;;;;29.90;23.50;;;;;;;;;;4933991;28;20240;-89
2023/01/07 02:13:28;;;;;;;29.30;24.37;;;;;;;;;;4914655;28;20230;-89
2023/01/07 02:16:02;;;;;;;29.70;22.00;;;;;;;;;;4916639;28;20282;-88
2023/01/07 02:18:36;;;;;;;30.27;25.03;;;;;;;;;;4958880;28;20384;-88
2023/01/07 02:21:18;;;;;;;31.57;24.33;;;;;;;;;;4962308;28;20239;-89
2023/01/07 02:24:04;;;;;;;29.33;24.23;;;;;;;;;;4934793;29;20232;-88
2023/01/07 02:26:42;;;;;;;29.10;24.00;;;;;;;;;;4916458;29;20699;-88
2023/01/07 02:29:16;;;;;;;28.87;23.90;;;;;;;;;;4936397;29;20233;-88
2023/01/07 02:32:00;;;;;;;30.73;24.67;;;;;;;;;;4932071;29;20222;-89
2023/01/07 02:34:38;;;;;;;31.63;23.47;;;;;;;;;;4939630;29;20258;-90
2023/01/07 02:37:15;;;;;;;30.93;23.87;;;;;;;;;;4906558;29;20233;-90
2023/01/07 02:39:57;;;;;;;28.00;22.80;;;;;;;;;;4957169;28;20207;-88
2023/01/07 02:42:27;;;;;;;26.23;21.83;;;;;;;;;;4952593;28;20222;-89
2023/01/07 02:45:14;;;;;;;25.03;21.93;;;;;;;;;;4950338;28;20226;-87
2023/01/07 02:47:42;;;;;;;23.10;20.40;;;;;;;;;;4975711;28;20261;-89
2023/01/07 02:50:07;;;;;;;25.67;21.53;;;;;;;;;;4941432;29;20590;-88
2023/01/07 02:52:34;;;;;;;26.30;22.20;;;;;;;;;;4926828;28;20230;-89
2023/01/07 02:55:23;;;;;;;24.27;20.70;;;;;;;;;;4920446;29;20705;-88
2023/01/07 02:58:17;;;;;;;24.53;21.90;;;;;;;;;;4901844;29;20301;-89
2023/01/07 03:01:13;;;;;;;22.97;20.53;;;;;;;;;;4922419;28;20246;-88
2023/01/07 03:04:10;;;;;;;24.67;21.13;;;;;;;;;;4941273;29;20799;-88
2023/01/07 03:06:54;;;;;;;24.43;20.90;;;;;;;;;;4952630;28;20222;-88
2023/01/07 03:09:23;;;;;;;22.87;20.30;;;;;;;;;;4943800;28;20236;-89
2023/01/07 03:12:20;;;;;;;24.47;21.73;;;;;;;;;;4943103;28;20313;-89
2023/01/07 03:14:58;;;;;;;24.17;20.70;;;;;;;;;;4970367;28;20251;-89
2023/01/07 03:17:32;;;;;;;23.83;20.90;;;;;;;;;;4923338;29;20226;-89
2023/01/07 03:19:58;;;;;;;23.03;20.70;;;;;;;;;;4924377;29;20549;-87
2023/01/07 03:22:24;;;;;;;24.87;22.17;;;;;;;;;;4910800;28;20218;-89
2023/01/07 03:24:50;;;;;;;24.33;21.80;;;;;;;;;;4913117;28;20237;-90
2023/01/07 03:27:19;;;;;;;22.87;20.67;;;;;;;;;;4927008;28;20760;-88
2023/01/07 03:29:46;;;;;;;23.27;20.87;;;;;;;;;;4919316;29;20302;-87
2023/01/07 03:32:17;;;;;;;24.97;22.40;;;;;;;;;;4911810;28;20245;-89
2023/01/07 03:34:49;;;;;;;23.87;21.43;;;;;;;;;;4928770;28;20228;-88
2023/01/07 03:37:16;;;;;;;24.80;22.40;;;;;;;;;;4932915;28;20210;-88
2023/01/07 03:39:43;;;;;;;25.20;22.53;;;;;;;;;;4928541;28;20913;-88
2023/01/07 03:45:01;;;;;;;25.17;22.70;;;;;;;;;;4931298;28;20226;-87
2023/01/07 03:47:30;;;;;;;25.37;22.73;;;;;;;;;;4932812;28;20686;-88
2023/01/07 03:49:56;;;;;;;25.40;22.87;;;;;;;;;;4928452;28;20226;-87
2023/01/07 03:52:24;;;;;;;24.77;22.17;;;;;;;;;;4919520;29;20225;-89
2023/01/07 03:55:00;;;;;;;25.87;23.37;;;;;;;;;;4955400;28;20245;-88
2023/01/07 03:57:28;;;;;;;24.90;22.57;;;;;;;;;;4926785;28;20242;-88
2023/01/07 03:59:55;;;;;;;26.27;23.57;;;;;;;;;;4912913;29;20221;-89
2023/01/07 04:02:20;;;;;;;25.30;22.67;;;;;;;;;;4916596;29;20223;-88
2023/01/07 04:04:46;;;;;;;24.47;21.87;;;;;;;;;;4926791;29;20215;-89
2023/01/07 04:07:12;;;;;;;24.90;22.40;;;;;;;;;;4925140;29;20241;-87
2023/01/07 04:09:38;;;;;;;24.43;21.83;;;;;;;;;;4928367;28;20605;-88
2023/01/07 04:12:07;;;;;;;23.33;21.00;;;;;;;;;;4929119;28;20226;-89
2023/01/07 04:14:33;;;;;;;24.87;22.47;;;;;;;;;;4928844;28;20226;-88
2023/01/07 04:16:59;;;;;;;24.60;22.23;;;;;;;;;;4937144;29;20213;-87
2023/01/07 04:19:25;;;;;;;24.70;22.00;;;;;;;;;;4942041;28;20211;-88
2023/01/07 04:21:50;;;;;;;22.00;19.90;;;;;;;;;;4933417;28;20233;-86
2023/01/07 04:24:16;;;;;;;22.33;20.13;;;;;;;;;;4931607;28;20214;-86
2023/01/07 04:26:52;;;;;;;21.83;19.63;;;;;;;;;;4953174;28;20203;-85
2023/01/07 04:29:22;;;;;;;22.10;19.97;;;;;;;;;;4935894;29;20235;-89
2023/01/07 04:31:50;;;;;;;21.30;19.30;;;;;;;;;;4925471;29;20258;-87
2023/01/07 04:34:16;;;;;;;20.77;18.90;;;;;;;;;;4928309;28;20237;-88
2023/01/07 04:36:44;;;;;;;19.93;18.03;;;;;;;;;;4930236;29;20229;-88
2023/01/07 04:39:11;;;;;;;20.87;18.87;;;;;;;;;;4950596;28;20225;-89
2023/01/07 04:41:37;;;;;;;21.73;19.63;;;;;;;;;;4916745;28;20214;-88
2023/01/07 04:44:03;;;;;;;21.07;19.00;;;;;;;;;;4918888;28;20255;-90
2023/01/07 04:46:29;;;;;;;21.10;19.00;;;;;;;;;;4924966;28;20233;-86
2023/01/07 04:48:55;;;;;;;19.40;17.60;;;;;;;;;;4954135;28;20206;-88
2023/01/07 04:51:24;;;;;;;20.80;18.60;;;;;;;;;;4930375;29;20711;-89
2023/01/07 04:53:49;;;;;;;20.67;18.67;;;;;;;;;;4928922;28;20257;-89
2023/01/07 04:56:18;;;;;;;20.17;18.37;;;;;;;;;;4915406;28;20210;-88
2023/01/07 04:58:45;;;;;;;19.67;17.77;;;;;;;;;;4931321;28;20728;-89
2023/01/07 05:01:11;;;;;;;19.20;17.43;;;;;;;;;;4925277;28;20214;-89
2023/01/07 05:03:37;;;;;;;19.87;18.00;;;;;;;;;;4923007;29;20219;-88
2023/01/07 05:06:04;;;;;;;19.17;17.37;;;;;;;;;;4894012;28;20227;-88
2023/01/07 05:08:31;;;;;;;19.53;17.70;;;;;;;;;;4926467;28;20217;-89
2023/01/07 05:11:00;;;;;;;17.90;16.27;;;;;;;;;;4925685;28;20230;-88
2023/01/07 05:13:30;;;;;;;18.40;16.73;;;;;;;;;;4923570;28;20230;-88
2023/01/07 05:15:56;;;;;;;18.43;16.70;;;;;;;;;;4917381;28;20231;-88
2023/01/07 05:18:22;;;;;;;17.77;16.27;;;;;;;;;;4925572;28;20218;-89
2023/01/07 05:20:50;;;;;;;17.90;16.20;;;;;;;;;;4929839;28;20589;-89
2023/01/07 05:23:20;;;;;;;17.27;15.73;;;;;;;;;;4926475;28;20234;-89
2023/01/07 05:25:47;;;;;;;17.97;16.40;;;;;;;;;;4923815;29;20890;-88
2023/01/07 05:28:15;;;;;;;17.03;15.53;;;;;;;;;;4908974;28;20234;-88
2023/01/07 05:30:41;;;;;;;17.70;16.00;;;;;;;;;;4921659;29;20306;-89
2023/01/07 05:33:07;;;;;;;18.40;16.77;;;;;;;;;;4906595;28;20628;-88
2023/01/07 05:35:34;;;;;;;17.33;15.70;;;;;;;;;;4925594;29;20454;-88
2023/01/07 05:38:03;;;;;;;18.83;17.13;;;;;;;;;;4921715;28;20299;-88
2023/01/07 05:40:31;;;;;;;17.90;16.13;;;;;;;;;;4903588;28;20222;-89
2023/01/07 05:42:59;;;;;;;18.37;16.67;;;;;;;;;;4930588;28;20222;-88
2023/01/07 05:45:26;;;;;;;17.40;15.87;;;;;;;;;;4917540;28;20223;-87
2023/01/07 05:47:59;;;;;;;17.87;16.27;;;;;;;;;;4932517;28;20250;-88
2023/01/07 05:50:27;;;;;;;16.83;15.23;;;;;;;;;;4911359;28;20254;-87
2023/01/07 05:52:55;;;;;;;17.27;15.77;;;;;;;;;;4960835;28;20221;-88
2023/01/07 05:55:20;;;;;;;18.83;17.03;;;;;;;;;;4915131;28;20684;-88
2023/01/07 05:57:50;;;;;;;17.40;15.83;;;;;;;;;;4934911;28;20314;-87
2023/01/07 06:00:17;;;;;;;17.37;15.87;;;;;;;;;;4932116;28;20597;-87
2023/01/07 06:02:45;;;;;;;18.13;16.60;;;;;;;;;;4960058;28;20232;-88
2023/01/07 06:05:13;;;;;;;16.50;15.20;;;;;;;;;;4926669;28;20281;-87
2023/01/07 06:07:40;;;;;;;17.93;16.17;;;;;;;;;;4927162;29;20230;-86
2023/01/07 06:10:06;;;;;;;18.00;16.43;;;;;;;;;;4939351;28;20304;-87
2023/01/07 06:12:36;;;;;;;17.57;16.07;;;;;;;;;;4928003;28;20218;-87
2023/01/07 06:15:02;;;;;;;16.90;15.50;;;;;;;;;;4936272;29;20219;-87
2023/01/07 06:17:27;;;;;;;17.70;16.27;;;;;;;;;;4915047;28;20257;-88
2023/01/07 06:19:55;;;;;;;16.37;14.97;;;;;;;;;;4900463;29;20554;-87
2023/01/07 06:22:21;;;;;;;15.67;14.43;;;;;;;;;;4922400;28;20222;-85
2023/01/07 06:24:46;;;;;;;16.77;15.30;;;;;;;;;;4926075;28;20721;-86
2023/01/07 06:27:12;;;;;;;16.07;14.73;;;;;;;;;;4928564;28;20309;-86
2023/01/07 06:29:40;;;;;;;15.40;14.17;;;;;;;;;;4928309;28;20230;-88
2023/01/07 06:32:07;;;;;;;14.43;13.23;;;;;;;;;;4924597;28;20289;-87
2023/01/07 06:34:33;;;;;;;15.47;14.07;;;;;;;;;;4939928;28;20313;-87
2023/01/07 06:36:58;;;;;;;13.87;12.73;;;;;;;;;;4940080;28;20704;-86
2023/01/07 06:39:26;;;;;;;13.17;12.07;;;;;;;;;;4941087;28;20280;-86
2023/01/07 06:41:54;;;;;;;13.43;12.30;;;;;;;;;;4942428;28;20210;-87
2023/01/07 06:44:20;;;;;;;13.50;12.33;;;;;;;;;;4916191;29;20242;-87
2023/01/07 06:46:45;;;;;;;12.67;11.57;;;;;;;;;;4918959;29;20229;-87
2023/01/07 06:49:13;;;;;;;13.07;11.97;;;;;;;;;;4940963;28;20230;-87
2023/01/07 06:51:39;;;;;;;11.53;10.60;;;;;;;;;;4927264;28;20290;-89
2023/01/07 06:54:09;;;;;;;11.87;10.77;;;;;;;;;;4924416;28;20216;-87
2023/01/07 06:56:35;;;;;;;11.10;10.20;;;;;;;;;;4956799;28;20222;-87
2023/01/07 06:59:03;;;;;;;11.90;10.83;;;;;;;;;;4925719;28;20222;-87
2023/01/07 07:01:28;;;;;;;10.63;9.73;;;;;;;;;;4918577;28;20286;-86
2023/01/07 07:03:56;;;;;;;11.53;10.63;;;;;;;;;;4928667;28;20246;-85
2023/01/07 07:06:21;;;;;;;13.87;12.70;;;;;;;;;;4942955;28;20245;-87
2023/01/07 07:08:47;;;;;;;10.67;9.67;;;;;;;;;;4928965;28;20270;-89
2023/01/07 07:11:18;;;;;;;11.00;10.00;;;;;;;;;;4945485;28;20225;-86
2023/01/07 07:13:43;;;;;;;9.63;8.83;;;;;;;;;;4941148;28;20308;-88
2023/01/07 07:16:09;;;;;;;12.57;11.57;;;;;;;;;;4912100;28;20705;-87
2023/01/07 07:18:35;;;;;;;9.57;8.77;;;;;;;;;;4943001;28;20218;-86
2023/01/07 07:21:02;;;;;;;9.93;9.13;;;;;;;;;;4911187;28;20222;-88
2023/01/07 07:23:28;;;;;;;9.17;8.47;;;;;;;;;;4927720;28;20218;-86
2023/01/07 07:25:53;;;;;;;10.00;9.10;;;;;;;;;;4909643;28;20218;-87
2023/01/07 07:28:19;;;;;;;9.53;8.83;;;;;;;;;;4905937;29;20228;-89
2023/01/07 07:30:47;;;;;;;9.50;8.80;;;;;;;;;;4924698;29;20231;-88
2023/01/07 07:33:13;;;;;;;9.30;8.50;;;;;;;;;;4891097;29;20239;-89
2023/01/07 07:35:39;;;;;;;10.07;9.17;;;;;;;;;;4907300;29;20254;-88
2023/01/07 07:38:04;;;;;;;9.17;8.37;;;;;;;;;;4913636;29;20315;-87
2023/01/07 07:40:32;;;;;;;9.33;8.53;;;;;;;;;;4904029;29;20239;-89
2023/01/07 07:42:59;;;;;;;8.07;7.40;;;;;;;;;;4906650;29;20240;-88
2023/01/07 07:45:24;;;;;;;8.93;8.23;;;;;;;;;;4916440;29;20231;-87
2023/01/07 07:47:52;;;;;;;8.27;7.50;;;;;;;;;;4924060;29;20250;-88
2023/01/07 07:50:18;;;;;;;8.67;7.97;;;;;;;;;;4945019;28;20725;-88
2023/01/07 07:52:46;;;;;;;8.43;7.73;;;;;;;;;;4918119;28;20305;-89
2023/01/07 07:55:11;;;;;;;7.73;7.13;;;;;;;;;;4906265;29;20239;-86
2023/01/07 07:57:37;;;;;;;8.27;7.47;;;;;;;;;;4918207;29;20226;-89
2023/01/07 08:00:03;;;;;;;8.07;7.47;;;;;;;;;;4911451;29;20686;-88
2023/01/07 08:02:37;;;;;;;7.97;6.70;;;;;;;;;;4921550;28;20222;-89
2023/01/07 08:05:03;;;;;;;7.30;6.80;;;;;;;;;;4924314;28;20235;-89
2023/01/07 08:07:28;;;;;;;7.40;6.80;;;;;;;;;;4941986;28;20226;-88
2023/01/07 08:09:56;;;;;;;7.13;6.63;;;;;;;;;;4938163;28;20235;-89
2023/01/07 08:12:22;;;;;;;7.47;6.87;;;;;;;;;;4923863;28;20230;-89
2023/01/07 08:14:47;;;;;;;8.60;6.47;;;;;;;;;;4923459;28;20229;-90
2023/01/07 08:17:13;;;;;;;7.83;7.23;;;;;;;;;;4909623;28;20650;-91
2023/01/07 08:19:41;;;;;;;7.67;7.07;;;;;;;;;;4909797;28;20214;-90
2023/01/07 08:22:12;;;;;;;7.20;6.70;;;;;;;;;;4908773;28;20221;-91
2023/01/07 08:24:37;;;;;;;6.67;6.17;;;;;;;;;;4925264;28;20226;-88
2023/01/07 08:27:03;;;;;;;6.63;6.13;;;;;;;;;;4926923;28;20676;-90
2023/01/07 08:29:28;;;;;;;7.90;7.20;;;;;;;;;;4924536;28;20222;-90
2023/01/07 08:31:59;;;;;;;6.63;6.13;;;;;;;;;;4941717;28;20221;-87
2023/01/07 08:34:28;;;;;;;5.60;5.10;;;;;;;;;;4950152;28;20226;-88
2023/01/07 08:36:53;;;;;;;5.80;5.30;;;;;;;;;;4911140;28;20242;-89
2023/01/07 08:39:21;;;;;;;6.03;5.47;;;;;;;;;;4908111;28;20807;-87
2023/01/07 08:41:49;;;;;;;5.37;4.97;;;;;;;;;;4924487;29;20218;-89
2023/01/07 08:44:15;;;;;;;5.40;5.00;;;;;;;;;;4908866;29;20215;-87
2023/01/07 08:46:42;;;;;;;5.43;5.03;;;;;;;;;;4926199;28;20226;-89
2023/01/07 08:49:09;;;;;;;5.03;4.63;;;;;;;;;;4907489;28;20608;-89
2023/01/07 08:51:37;;;;;;;5.00;4.53;;;;;;;;;;4912816;29;20227;-88
2023/01/07 08:54:03;;;;;;;5.10;4.80;;;;;;;;;;4919514;29;20227;-89
2023/01/07 08:56:28;;;;;;;4.37;4.07;;;;;;;;;;4906339;29;20230;-89
2023/01/07 08:58:57;;;;;;;4.10;3.80;;;;;;;;;;4910672;29;20227;-90
2023/01/07 09:01:27;;;;;;;4.37;3.97;;;;;;;;;;4914076;28;20270;-89
2023/01/07 09:03:55;;;;;;;4.20;3.80;;;;;;;;;;4906761;28;20282;-88
2023/01/07 09:06:23;;;;;;;3.77;3.47;;;;;;;;;;4943806;29;20223;-88
2023/01/07 09:08:48;;;;;;;3.67;3.43;;;;;;;;;;4912418;29;20237;-88
2023/01/07 09:11:19;;;;;;;6.63;6.00;;;;;;;;;;4915861;29;20231;-87
2023/01/07 09:13:48;;;;;;;10.70;9.73;;;;;;;;;;4902585;29;20242;-88
2023/01/07 09:16:13;;;;;;;5.37;4.83;;;;;;;;;;4919252;29;20238;-88
2023/01/07 09:18:39;;;;;;;4.00;3.70;;;;;;;;;;4912461;29;20226;-87
2023/01/07 09:21:07;;;;;;;3.43;3.23;;;;;;;;;;4962324;28;20242;-88
2023/01/07 09:23:32;;;;;;;3.67;3.37;;;;;;;;;;4959595;28;20226;-86
2023/01/07 09:26:00;;;;;;;2.70;2.50;;;;;;;;;;4926139;29;20246;-86
2023/01/07 09:28:26;;;;;;;3.60;3.40;;;;;;;;;;4942732;28;20202;-87
2023/01/07 09:30:51;;;;;;;2.87;2.67;;;;;;;;;;4967657;28;20207;-86
2023/01/07 09:33:17;;;;;;;2.80;2.60;;;;;;;;;;4942155;28;20214;-87
2023/01/07 09:35:42;;;;;;;3.07;2.87;;;;;;;;;;4936183;28;20232;-87
2023/01/07 09:38:08;;;;;;;3.10;2.90;;;;;;;;;;4935624;28;20287;-86
2023/01/07 09:40:40;;;;;;;3.10;2.90;;;;;;;;;;4940116;28;20289;-85
2023/01/07 09:43:26;;;;;;;3.10;2.90;;;;;;;;;;4938431;28;20953;-86
2023/01/07 09:45:53;;;;;;;3.27;2.97;;;;;;;;;;4940490;28;20254;-88
2023/01/07 09:48:30;;;;;;;3.30;3.10;;;;;;;;;;4927239;29;20236;-86
2023/01/07 09:51:18;;;;;;;4.63;4.23;;;;;;;;;;4924020;28;20757;-86
2023/01/07 09:53:53;;;;;;;3.90;3.50;;;;;;;;;;4938025;28;20230;-88
2023/01/07 09:56:24;;;;;;;3.20;3.00;;;;;;;;;;4907469;29;20233;-87
2023/01/07 09:59:00;;;;;;;3.30;3.10;;;;;;;;;;4926557;29;20239;-90
2023/01/07 10:01:49;;;;;;;3.40;3.20;;;;;;;;;;4909167;29;20300;-86
2023/01/07 10:04:49;;;;;;;5.80;3.67;;;;;;;;;;4936153;29;20215;-88
2023/01/07 10:07:35;;;;;;;3.50;3.30;;;;;;;;;;4950444;29;20230;-87
2023/01/07 10:10:39;;;;;;;4.40;4.00;;;;;;;;;;4952251;28;20233;-88
2023/01/07 10:13:22;;;;;;;5.67;5.17;;;;;;;;;;4917373;28;20229;-89
2023/01/07 10:16:02;;;;;;;3.20;3.00;;;;;;;;;;4939568;28;20237;-87
2023/01/07 10:18:30;;;;;;;3.30;3.10;;;;;;;;;;4940695;28;20775;-88
2023/01/07 10:21:13;;;;;;;2.90;2.70;;;;;;;;;;4942534;28;20275;-89
2023/01/07 10:23:52;;;;;;;3.53;3.10;;;;;;;;;;4934797;29;20235;-87
2023/01/07 10:26:38;;;;;;;2.80;2.60;;;;;;;;;;4910514;29;20239;-88
2023/01/07 10:29:07;;;;;;;2.60;2.50;;;;;;;;;;4925313;29;20275;-87
2023/01/07 10:31:32;;;;;;;2.43;2.23;;;;;;;;;;4885046;29;20231;-88
2023/01/07 10:33:58;;;;;;;2.30;2.20;;;;;;;;;;4905076;29;20238;-87
2023/01/07 10:36:30;;;;;;;2.03;1.93;;;;;;;;;;4917755;29;20220;-89
2023/01/07 10:39:27;;;;;;;3.50;3.07;;;;;;;;;;4899698;29;20233;-90
2023/01/07 10:42:11;;;;;;;3.57;3.27;;;;;;;;;;4926414;29;20421;-89
2023/01/07 10:45:06;;;;;;;2.80;2.30;;;;;;;;;;4946814;28;20245;-87
2023/01/07 10:47:54;;;;;;;2.07;1.87;;;;;;;;;;4933342;28;20218;-87
2023/01/07 10:50:47;;;;;;;2.20;2.10;;;;;;;;;;4939880;28;20221;-86
2023/01/07 10:53:27;;;;;;;1.80;1.70;;;;;;;;;;4980056;28;20229;-88
2023/01/07 10:56:18;;;;;;;2.13;2.00;;;;;;;;;;4960894;28;20229;-88
2023/01/07 10:58:44;;;;;;;2.17;2.00;;;;;;;;;;4941396;29;20297;-88
2023/01/07 11:01:20;;;;;;;1.83;1.73;;;;;;;;;;4924512;28;20223;-89
2023/01/07 11:03:49;;;;;;;2.17;2.07;;;;;;;;;;4963637;28;20248;-89
2023/01/07 11:06:17;;;;;;;2.83;2.63;;;;;;;;;;4965942;28;20297;-85
2023/01/07 11:08:45;;;;;;;2.37;2.17;;;;;;;;;;4942178;28;20218;-86
2023/01/07 11:11:14;;;;;;;2.17;2.07;;;;;;;;;;4941297;28;20230;-89
2023/01/07 11:13:40;;;;;;;2.07;1.87;;;;;;;;;;4957990;28;20214;-89
2023/01/07 11:16:09;;;;;;;1.90;1.80;;;;;;;;;;4945257;28;20237;-86
2023/01/07 11:18:46;;;;;;;1.83;1.73;;;;;;;;;;4960592;28;20261;-88
2023/01/07 11:21:29;;;;;;;2.73;2.00;;;;;;;;;;4941514;29;20710;-89
2023/01/07 11:23:55;;;;;;;1.77;1.67;;;;;;;;;;4932306;28;20254;-88
2023/01/07 11:26:28;;;;;;;1.90;1.80;;;;;;;;;;4904800;28;20222;-87
2023/01/07 11:28:58;;;;;;;5.43;2.03;;;;;;;;;;4923340;28;20280;-89
2023/01/07 11:31:44;;;;;;;2.37;1.50;;;;;;;;;;4926640;28;20321;-89
2023/01/07 11:34:25;;;;;;;1.50;1.40;;;;;;;;;;4974260;28;20245;-89
2023/01/07 11:36:51;;;;;;;1.90;1.80;;;;;;;;;;4926081;28;20233;-89
2023/01/07 11:39:19;;;;;;;1.53;1.40;;;;;;;;;;4921022;28;20234;-89
2023/01/07 11:42:37;;;;;;;1.70;1.60;;;;;;;;;;4959853;28;20624;-88
2023/01/07 11:44:46;;;;;;;2.03;1.53;;;;;;;;;;4949530;28;20238;-88
2023/01/07 11:47:17;;;;;;;1.90;1.50;;;;;;;;;;4924869;29;20235;-88
2023/01/07 11:49:45;;;;;;;1.77;1.40;;;;;;;;;;4944285;28;20215;-86
2023/01/07 11:52:21;;;;;;;1.83;1.47;;;;;;;;;;4948270;28;20218;-90
2023/01/07 11:54:50;;;;;;;1.83;1.73;;;;;;;;;;4930339;28;20233;-88
2023/01/07 11:57:25;;;;;;;1.30;1.30;;;;;;;;;;4965687;28;20222;-88
2023/01/07 12:00:16;;;;;;;5.03;4.53;;;;;;;;;;4963123;28;20252;-85
2023/01/07 12:02:42;;;;;;;2.07;1.97;;;;;;;;;;4962356;28;20229;-88
2023/01/07 12:05:22;;;;;;;1.90;1.80;;;;;;;;;;4946521;28;20219;-89
2023/01/07 12:07:50;;;;;;;1.60;1.50;;;;;;;;;;4925585;28;20214;-86
2023/01/07 12:10:36;;;;;;;1.80;1.43;;;;;;;;;;4924004;28;20222;-87
2023/01/07 12:13:16;;;;;;;1.53;1.30;;;;;;;;;;4935504;28;20214;-88
2023/01/07 12:15:52;;;;;;;1.37;1.30;;;;;;;;;;4949055;28;20218;-87
2023/01/07 12:21:36;;;;;;;1.70;1.60;;;;;;;;;;4967181;28;20293;-79
2023/01/07 12:24:49;;;;;;;1.50;1.40;;;;;;;;;;4949118;29;20226;-79
2023/01/07 12:27:25;;;;;;;1.10;1.10;;;;;;;;;;4890627;29;20232;-79
2023/01/07 12:30:09;;;;;;;1.20;1.20;;;;;;;;;;4928587;29;20219;-79
2023/01/07 12:33:04;;;;;;;1.30;1.20;;;;;;;;;;4953312;28;20227;-77
2023/01/07 12:35:37;;;;;;;2.40;1.40;;;;;;;;;;4914477;28;20233;-79
2023/01/07 12:38:33;;;;;;;2.87;1.30;;;;;;;;;;4929445;29;20227;-80
2023/01/07 12:41:18;;;;;;;2.00;1.10;;;;;;;;;;4921827;28;20322;-79
2023/01/07 12:44:04;;;;;;;1.30;1.20;;;;;;;;;;4918299;29;20716;-78
2023/01/07 12:46:48;;;;;;;1.60;1.50;;;;;;;;;;4931380;29;20697;-78
2023/01/07 12:49:34;;;;;;;1.73;1.30;;;;;;;;;;4930214;29;20709;-81
2023/01/07 12:52:04;;;;;;;1.37;1.27;;;;;;;;;;4928860;28;20234;-79
2023/01/07 12:54:45;;;;;;;1.93;1.50;;;;;;;;;;4935004;29;20234;-79
2023/01/07 12:57:37;;;;;;;1.23;1.13;;;;;;;;;;4929980;29;20222;-80
2023/01/07 13:00:13;;;;;;;1.47;1.37;;;;;;;;;;4914137;29;20844;-82
2023/01/07 13:02:58;;;;;;;1.20;1.10;;;;;;;;;;4930036;29;20265;-79
2023/01/07 13:05:25;;;;;;;1.30;1.20;;;;;;;;;;4929183;29;20222;-82
2023/01/07 13:08:04;;;;;;;1.50;1.40;;;;;;;;;;4932742;29;20306;-80
2023/01/07 13:10:39;;;;;;;2.13;1.20;;;;;;;;;;4944979;28;20319;-79
2023/01/07 13:13:19;;;;;;;1.20;1.10;;;;;;;;;;4904547;29;20226;-81
2023/01/07 13:15:45;;;;;;;1.10;1.10;;;;;;;;;;4929808;29;20322;-81
2023/01/07 13:18:10;;;;;;;0.87;0.87;;;;;;;;;;4928723;29;20226;-82
2023/01/07 13:20:53;;;;;;;0.90;0.90;;;;;;;;;;4944950;28;20277;-80
2023/01/07 13:23:23;;;;;;;0.70;0.70;;;;;;;;;;4928753;29;20298;-79
2023/01/07 13:26:14;;;;;;;1.10;1.00;;;;;;;;;;4911412;29;20216;-78
2023/01/07 13:28:57;;;;;;;1.27;1.10;;;;;;;;;;4907558;29;20237;-79
2023/01/07 13:31:45;;;;;;;1.43;0.90;;;;;;;;;;4914384;29;20231;-78
2023/01/07 13:34:46;;;;;;;1.10;0.80;;;;;;;;;;4940727;28;20238;-82
2023/01/07 13:37:23;;;;;;;0.90;0.90;;;;;;;;;;4930323;29;20258;-81
2023/01/07 13:40:01;;;;;;;0.93;0.93;;;;;;;;;;4945741;28;20230;-79
2023/01/07 13:42:26;;;;;;;0.83;0.80;;;;;;;;;;4939646;28;20610;-79
2023/01/07 13:45:20;;;;;;;1.10;1.10;;;;;;;;;;4948799;28;20227;-79
2023/01/07 13:47:48;;;;;;;1.53;1.00;;;;;;;;;;4900337;29;20764;-76
2023/01/07 13:50:31;;;;;;;1.47;1.20;;;;;;;;;;4909023;29;20277;-77
2023/01/07 13:53:01;;;;;;;0.80;0.80;;;;;;;;;;4927533;29;20239;-78
2023/01/07 13:55:31;;;;;;;1.10;1.10;;;;;;;;;;4930191;29;20229;-81
2023/01/07 13:57:57;;;;;;;1.00;0.87;;;;;;;;;;4945173;28;20282;-80
2023/01/07 14:00:59;;;;;;;0.93;0.93;;;;;;;;;;4918103;29;20324;-79
2023/01/07 14:03:38;;;;;;;1.10;0.90;;;;;;;;;;4921096;29;20227;-81
2023/01/07 14:06:35;;;;;;;0.87;0.87;;;;;;;;;;4949139;29;20230;-80
2023/01/07 14:09:06;;;;;;;0.90;0.90;;;;;;;;;;4941322;28;20768;-81
2023/01/07 14:11:32;;;;;;;1.23;0.80;;;;;;;;;;4943808;28;20235;-81
2023/01/07 14:13:57;;;;;;;1.07;1.00;;;;;;;;;;4949542;28;20227;-81
2023/01/07 14:16:29;;;;;;;0.90;0.90;;;;;;;;;;4937306;29;20227;-81
2023/01/07 14:19:05;;;;;;;1.40;0.90;;;;;;;;;;4923666;28;20214;-79
2023/01/07 14:21:31;;;;;;;1.00;0.90;;;;;;;;;;4938450;28;20210;-81
2023/01/07 14:24:25;;;;;;;0.90;0.90;;;;;;;;;;4949596;28;20257;-81
2023/01/07 14:27:15;;;;;;;1.30;1.20;;;;;;;;;;4954660;29;20222;-76
2023/01/07 14:29:48;;;;;;;1.80;1.70;;;;;;;;;;4961698;28;20219;-80
2023/01/07 14:32:30;;;;;;;1.23;1.20;;;;;;;;;;4938415;29;20291;-78
2023/01/07 14:35:06;;;;;;;1.13;0.80;;;;;;;;;;4953554;28;20234;-80
2023/01/07 14:37:39;;;;;;;1.00;1.00;;;;;;;;;;4960864;28;20647;-78
2023/01/07 14:40:28;;;;;;;1.23;0.90;;;;;;;;;;4950719;28;20727;-81
2023/01/07 14:42:59;;;;;;;0.70;0.70;;;;;;;;;;4949078;28;20257;-80
2023/01/07 14:45:39;;;;;;;0.70;0.70;;;;;;;;;;4914092;29;20223;-78
2023/01/07 14:48:08;;;;;;;0.90;0.90;;;;;;;;;;4943326;28;20701;-77
2023/01/07 14:50:38;;;;;;;0.73;0.73;;;;;;;;;;4947104;28;20253;-78
2023/01/07 14:53:30;;;;;;;0.93;0.90;;;;;;;;;;4926910;28;20298;-77
2023/01/07 14:56:07;;;;;;;0.77;0.73;;;;;;;;;;4928839;29;20611;-78
2023/01/07 14:58:56;;;;;;;0.83;0.83;;;;;;;;;;4947180;28;20712;-76
2023/01/07 15:01:21;;;;;;;0.67;0.67;;;;;;;;;;4936043;29;20257;-76
2023/01/07 15:04:05;;;;;;;1.17;0.90;;;;;;;;;;4948406;28;20219;-79
2023/01/07 15:06:40;;;;;;;0.70;0.70;;;;;;;;;;4951689;29;20577;-76